Time;durP1;ratioP1;P1;durP2;ratioP2;P2;SDS_P1;SDS_P2;PMS_P1;PMS_P2;Temp;Humidity;BMP_temperature;BMP_pressure;BME280_temperature;BME280_humidity;BME280_pressure;Samples;Min_cycle;Max_cycle;Signal;HPM_P1;HPM_P2
2022/01/10 00:00:32;;;;;;;;;;;;;;;5.94;60.60;100022.81;5032956;28;6889;-71
2022/01/10 00:03:02;;;;;;;;;;;;;;;5.94;60.40;100021.91;5028769;28;6999;-71
2022/01/10 00:05:27;;;;;;;;;;;;;;;5.94;60.68;100022.81;5030444;28;6831;-71
2022/01/10 00:07:53;;;;;;;;;;;;;;;5.95;60.41;100016.06;5030292;28;9438;-71
2022/01/10 00:10:20;;;;;;;;;;;;;;;5.94;60.41;100032.09;5032373;28;7197;-71
2022/01/10 00:12:46;;;;;;;;;;;;;;;5.90;60.46;100030.16;5049252;28;6803;-71
2022/01/10 00:15:15;;;;;;;;;;;;;;;5.87;60.49;100043.56;5030888;28;6839;-71
2022/01/10 00:17:43;;;;;;;;;;;;;;;5.85;60.55;100045.13;5033003;28;6819;-71
2022/01/10 00:20:13;;;;;;;;;;;;;;;5.87;60.60;100047.78;5032688;28;6800;-71
2022/01/10 00:22:40;;;;;;;;;;;;;;;5.87;60.50;100047.78;5038005;28;7169;-71
2022/01/10 00:25:07;;;;;;;;;;;;;;;5.87;60.48;100048.66;5032037;28;6827;-71
2022/01/10 00:27:33;;;;;;;;;;;;;;;5.91;60.87;100047.19;5032289;28;6823;-71
2022/01/10 00:29:58;;;;;;;;;;;;;;;5.94;61.26;100055.88;5047882;28;6834;-71
2022/01/10 00:32:24;;;;;;;;;;;;;;;5.95;60.62;100049.16;5031251;28;6852;-71
2022/01/10 00:34:51;;;;;;;;;;;;;;;5.94;60.30;100047.34;5063862;28;9848;-71
2022/01/10 00:37:18;;;;;;;;;;;;;;;5.90;60.13;100061.59;5031635;28;7101;-71
2022/01/10 00:39:44;;;;;;;;;;;;;;;5.84;60.57;100051.91;5012802;28;7005;-72
2022/01/10 00:42:09;;;;;;;;;;;;;;;5.80;59.91;100061.81;5049503;28;6981;-71
2022/01/10 00:44:45;;;;;;;;;;;;;;;5.78;60.65;100064.25;5029953;28;6878;-71
2022/01/10 00:47:11;;;;;;;;;;;;;;;5.75;60.55;100075.88;5016770;28;7680;-71
2022/01/10 00:49:36;;;;;;;;;;;;;;;5.73;60.69;100080.00;5050349;28;7071;-71
2022/01/10 00:52:03;;;;;;;;;;;;;;;5.71;60.57;100082.44;5032957;28;6891;-71
2022/01/10 00:54:29;;;;;;;;;;;;;;;5.70;60.60;100083.22;5050498;28;7202;-71
2022/01/10 00:56:55;;;;;;;;;;;;;;;5.69;61.13;100091.63;5017548;28;6819;-71
2022/01/10 00:59:20;;;;;;;;;;;;;;;5.67;60.80;100091.53;5033403;28;6787;-71
2022/01/10 01:01:46;;;;;;;;;;;;;;;5.68;60.70;100097.50;5050440;28;6900;-71
2022/01/10 01:04:12;;;;;;;;;;;;;;;5.68;61.15;100095.84;5049245;28;6803;-71
2022/01/10 01:06:38;;;;;;;;;;;;;;;5.69;60.79;100092.50;5066469;28;6867;-71
2022/01/10 01:09:08;;;;;;;;;;;;;;;5.73;61.20;100095.25;5045474;28;8098;-71
2022/01/10 01:14:24;;;;;;;;;;;;;;;5.73;60.93;100105.44;5033646;28;8453;-71
2022/01/10 01:17:08;;;;;;;;;;;;;;;5.73;60.46;100100.34;5032089;28;6807;-71
2022/01/10 01:25:04;;;;;;;;;;;;;;;5.58;60.22;100128.22;5031987;28;7179;-71
2022/01/10 01:27:29;;;;;;;;;;;;;;;5.52;60.42;100131.25;5029997;28;6811;-71
2022/01/10 01:29:55;;;;;;;;;;;;;;;5.50;60.63;100140.44;5044995;28;6787;-71
2022/01/10 01:32:21;;;;;;;;;;;;;;;5.49;60.25;100146.31;5029308;28;6792;-71
2022/01/10 01:34:46;;;;;;;;;;;;;;;5.49;60.60;100141.22;5047723;28;6886;-71
2022/01/10 01:37:12;;;;;;;;;;;;;;;5.49;61.02;100156.47;5027558;28;6791;-71
2022/01/10 01:39:38;;;;;;;;;;;;;;;5.51;60.99;100162.56;5044388;28;6788;-71
2022/01/10 01:42:18;;;;;;;;;;;;;;;5.55;61.28;100161.97;5045209;28;6775;-71
2022/01/10 01:44:48;;;;;;;;;;;;;;;5.61;61.07;100164.91;5027591;28;6831;-71
2022/01/10 01:47:14;;;;;;;;;;;;;;;5.66;61.19;100166.06;5029963;28;6969;-71
2022/01/10 01:49:40;;;;;;;;;;;;;;;5.72;61.23;100173.19;5027792;28;6795;-71
2022/01/10 01:52:05;;;;;;;;;;;;;;;5.78;61.03;100177.78;5031274;28;6811;-71
2022/01/10 01:54:31;;;;;;;;;;;;;;;5.81;61.27;100181.41;5060147;28;7259;-71
2022/01/10 01:56:58;;;;;;;;;;;;;;;5.84;61.32;100184.19;5027487;28;7257;-71
2022/01/10 01:59:24;;;;;;;;;;;;;;;5.85;60.69;100182.50;5028087;28;6831;-71
2022/01/10 02:01:50;;;;;;;;;;;;;;;5.85;61.09;100179.94;5030665;28;6878;-71
2022/01/10 02:04:16;;;;;;;;;;;;;;;5.83;60.68;100190.03;5062525;28;6807;-71
2022/01/10 02:06:41;;;;;;;;;;;;;;;5.81;60.85;100191.59;5046140;28;7198;-71
2022/01/10 02:09:07;;;;;;;;;;;;;;;5.78;60.59;100191.41;5029507;28;6807;-71
2022/01/10 02:11:33;;;;;;;;;;;;;;;5.76;60.62;100204.81;5048863;28;8051;-71
2022/01/10 02:14:00;;;;;;;;;;;;;;;5.73;60.60;100207.16;5027458;28;6800;-71
2022/01/10 02:16:41;;;;;;;;;;;;;;;5.71;60.87;100204.50;5031353;28;6912;-71
2022/01/10 02:19:07;;;;;;;;;;;;;;;5.68;60.75;100207.72;5031362;28;8239;-71
2022/01/10 02:21:33;;;;;;;;;;;;;;;5.66;60.54;100216.91;5031787;28;6804;-71
2022/01/10 02:23:59;;;;;;;;;;;;;;;5.64;60.57;100218.50;5029153;28;6800;-71
2022/01/10 02:26:24;;;;;;;;;;;;;;;5.62;60.51;100217.53;5030557;28;7208;-71
2022/01/10 02:28:50;;;;;;;;;;;;;;;5.59;60.81;100219.84;5030321;28;6966;-71
2022/01/10 02:31:16;;;;;;;;;;;;;;;5.56;60.45;100212.03;5048219;28;6909;-71
2022/01/10 02:33:42;;;;;;;;;;;;;;;5.53;60.62;100214.38;5049827;28;6842;-71
2022/01/10 02:38:46;;;;;;;;;;;;;;;5.46;60.61;100227.47;5046966;28;6823;-71
2022/01/10 02:41:27;;;;;;;;;;;;;;;5.41;60.34;100230.59;5051062;28;6824;-71
2022/01/10 02:43:56;;;;;;;;;;;;;;;5.38;60.79;100235.44;5034547;28;6963;-71
2022/01/10 02:46:22;;;;;;;;;;;;;;;5.37;60.90;100243.84;5032127;28;6890;-71
2022/01/10 02:48:48;;;;;;;;;;;;;;;5.36;60.51;100244.63;5033583;28;6804;-71
2022/01/10 02:51:14;;;;;;;;;;;;;;;5.35;60.83;100250.50;5031529;28;7101;-71
2022/01/10 02:53:40;;;;;;;;;;;;;;;5.33;61.06;100252.06;5065999;28;6803;-71
2022/01/10 02:56:05;;;;;;;;;;;;;;;5.34;61.26;100255.47;5031919;28;7359;-71
2022/01/10 02:58:31;;;;;;;;;;;;;;;5.31;61.12;100263.81;5030166;28;9776;-71
2022/01/10 03:00:57;;;;;;;;;;;;;;;5.32;60.97;100273.19;5065996;28;7179;-71
2022/01/10 03:03:27;;;;;;;;;;;;;;;5.31;60.94;100273.97;5034727;28;6799;-71
2022/01/10 03:05:53;;;;;;;;;;;;;;;5.31;60.75;100284.13;5056244;28;8106;-71
2022/01/10 03:08:19;;;;;;;;;;;;;;;5.31;61.34;100284.13;5032882;28;6808;-71
2022/01/10 03:10:45;;;;;;;;;;;;;;;5.31;61.06;100288.31;5019562;28;6890;-71
2022/01/10 03:13:10;;;;;;;;;;;;;;;5.30;61.26;100292.50;5050327;28;6807;-71
2022/01/10 03:15:36;;;;;;;;;;;;;;;5.32;61.48;100300.25;5033878;28;7903;-71
2022/01/10 03:18:02;;;;;;;;;;;;;;;5.33;61.14;100300.38;5049730;28;6926;-71
2022/01/10 03:20:27;;;;;;;;;;;;;;;5.36;61.62;100303.09;5031461;28;6827;-71
2022/01/10 03:22:54;;;;;;;;;;;;;;;5.40;61.53;100306.72;5049297;28;7727;-71
2022/01/10 03:25:20;;;;;;;;;;;;;;;5.42;61.63;100305.16;5047038;28;6820;-71
2022/01/10 03:27:46;;;;;;;;;;;;;;;5.45;61.08;100314.66;5050951;28;6959;-71
2022/01/10 03:30:12;;;;;;;;;;;;;;;5.46;61.36;100316.44;5047349;28;6792;-71
2022/01/10 03:32:39;;;;;;;;;;;;;;;5.47;61.06;100320.72;5030215;28;6792;-71
2022/01/10 03:35:05;;;;;;;;;;;;;;;5.49;61.15;100329.34;5030110;28;6804;-71
2022/01/10 03:37:31;;;;;;;;;;;;;;;5.49;61.07;100329.34;5028686;28;7291;-71
2022/01/10 03:39:57;;;;;;;;;;;;;;;5.50;61.33;100336.19;5030638;28;6783;-71
2022/01/10 03:42:23;;;;;;;;;;;;;;;5.49;60.85;100331.88;5027385;28;8271;-71
2022/01/10 03:44:48;;;;;;;;;;;;;;;5.51;61.21;100337.97;5029975;28;7078;-71
2022/01/10 03:47:16;;;;;;;;;;;;;;;5.52;61.26;100337.19;5030369;28;7260;-71
2022/01/10 03:49:42;;;;;;;;;;;;;;;5.56;61.23;100352.75;5027427;28;6811;-71
2022/01/10 03:52:08;;;;;;;;;;;;;;;5.60;60.90;100345.31;5048135;28;6851;-71
2022/01/10 03:54:33;;;;;;;;;;;;;;;5.65;61.15;100359.22;5045466;28;7307;-71
2022/01/10 03:56:59;;;;;;;;;;;;;;;5.67;61.21;100355.13;5029771;28;6824;-71
2022/01/10 03:59:25;;;;;;;;;;;;;;;5.70;61.37;100366.41;5027125;28;6803;-71
2022/01/10 04:01:52;;;;;;;;;;;;;;;5.74;61.23;100371.69;5010023;28;6966;-71
2022/01/10 04:04:18;;;;;;;;;;;;;;;5.78;61.42;100372.00;5043047;28;7539;-71
2022/01/10 04:06:44;;;;;;;;;;;;;;;5.82;61.17;100370.53;5027679;28;6807;-71
2022/01/10 04:09:09;;;;;;;;;;;;;;;5.84;61.31;100381.69;5027211;28;7312;-71
2022/01/10 04:11:36;;;;;;;;;;;;;;;5.84;61.03;100379.16;5025230;28;6956;-70
2022/01/10 04:14:02;;;;;;;;;;;;;;;5.84;60.69;100389.31;5022108;28;6898;-71
2022/01/10 04:16:28;;;;;;;;;;;;;;;5.83;60.42;100392.66;5008553;28;6869;-71
2022/01/10 04:18:54;;;;;;;;;;;;;;;5.81;60.40;100399.31;5008117;28;6938;-71
2022/01/10 04:21:20;;;;;;;;;;;;;;;5.78;60.31;100414.34;5026390;28;6891;-71
2022/01/10 04:23:46;;;;;;;;;;;;;;;5.74;60.46;100414.91;5037283;28;8229;-71
2022/01/10 04:26:11;;;;;;;;;;;;;;;5.69;60.74;100417.16;5048240;28;6784;-70
2022/01/10 04:28:37;;;;;;;;;;;;;;;5.64;60.24;100432.09;5029416;28;7640;-71
2022/01/10 04:31:04;;;;;;;;;;;;;;;5.61;60.29;100431.00;5031206;28;6859;-70
2022/01/10 04:33:30;;;;;;;;;;;;;;;5.53;59.89;100428.81;5014373;28;6962;-70
2022/01/10 04:35:58;;;;;;;;;;;;;;;5.50;60.43;100431.16;5034371;28;6879;-71
2022/01/10 04:38:25;;;;;;;;;;;;;;;5.46;59.98;100441.00;5014535;28;6804;-71
2022/01/10 04:40:51;;;;;;;;;;;;;;;5.42;60.51;100443.34;5052086;28;7210;-70
2022/01/10 04:43:17;;;;;;;;;;;;;;;5.39;60.68;100450.72;5027409;28;6799;-71
2022/01/10 04:45:43;;;;;;;;;;;;;;;5.38;60.89;100456.59;5032996;28;7139;-71
2022/01/10 04:48:09;;;;;;;;;;;;;;;5.39;60.92;100458.34;5013836;28;6930;-71
2022/01/10 04:53:07;;;;;;;;;;;;;;;5.41;61.04;100467.00;5036832;28;6855;-70
2022/01/10 04:55:33;;;;;;;;;;;;;;;5.42;61.03;100467.84;5033424;28;7196;-70
2022/01/10 04:57:58;;;;;;;;;;;;;;;5.41;60.69;100472.09;5049605;28;6799;-70
2022/01/10 05:00:25;;;;;;;;;;;;;;;5.41;60.62;100476.25;5032537;28;6980;-71
2022/01/10 05:02:51;;;;;;;;;;;;;;;5.39;60.47;100485.44;5036002;28;7034;-70
2022/01/10 05:05:17;;;;;;;;;;;;;;;5.37;60.65;100487.00;5031597;28;7331;-70
2022/01/10 05:07:42;;;;;;;;;;;;;;;5.34;60.43;100487.66;5033001;28;7148;-70
2022/01/10 05:10:09;;;;;;;;;;;;;;;5.33;60.83;100496.06;5033745;28;7279;-71
2022/01/10 05:12:34;;;;;;;;;;;;;;;5.31;61.02;100502.72;5033317;28;6795;-72
2022/01/10 05:15:00;;;;;;;;;;;;;;;5.29;61.23;100514.41;5034788;28;6824;-71
2022/01/10 05:17:26;;;;;;;;;;;;;;;5.28;60.58;100508.47;5035581;28;6987;-71
2022/01/10 05:19:51;;;;;;;;;;;;;;;5.29;61.00;100516.94;5023091;28;6986;-71
2022/01/10 05:22:17;;;;;;;;;;;;;;;5.30;60.99;100523.78;5034247;28;6827;-71
2022/01/10 05:24:43;;;;;;;;;;;;;;;5.32;61.13;100529.91;5052697;28;7543;-71
2022/01/10 05:27:09;;;;;;;;;;;;;;;5.35;61.15;100532.66;5055056;28;6871;-71
2022/01/10 05:29:34;;;;;;;;;;;;;;;5.39;60.72;100541.38;5053361;28;7250;-71
2022/01/10 05:32:00;;;;;;;;;;;;;;;5.40;61.29;100549.09;5054683;28;6811;-71
2022/01/10 05:34:26;;;;;;;;;;;;;;;5.39;60.59;100542.25;5035538;28;7951;-71
2022/01/10 05:36:51;;;;;;;;;;;;;;;5.37;60.70;100551.41;5035704;28;6884;-71
2022/01/10 05:39:18;;;;;;;;;;;;;;;5.34;60.47;100558.84;5035380;28;6788;-71
2022/01/10 05:41:44;;;;;;;;;;;;;;;5.31;60.27;100563.72;5054627;28;6811;-70
2022/01/10 05:44:10;;;;;;;;;;;;;;;5.28;60.86;100573.63;5034565;28;8030;-71
2022/01/10 05:46:38;;;;;;;;;;;;;;;5.23;60.19;100567.34;5034206;28;6862;-71
2022/01/10 05:49:06;;;;;;;;;;;;;;;5.20;60.08;100580.72;5034050;28;6804;-71
2022/01/10 05:51:34;;;;;;;;;;;;;;;5.15;60.38;100587.09;5052375;28;6815;-71
2022/01/10 05:54:06;;;;;;;;;;;;;;;5.12;60.46;100586.91;5050225;28;8407;-71
2022/01/10 05:56:33;;;;;;;;;;;;;;;5.08;60.85;100588.31;5034710;28;7253;-71
2022/01/10 05:59:01;;;;;;;;;;;;;;;5.05;60.72;100595.72;5033509;28;7250;-71
2022/01/10 06:01:28;;;;;;;;;;;;;;;5.03;60.49;100602.38;5031705;28;6929;-71
2022/01/10 06:03:53;;;;;;;;;;;;;;;5.00;61.20;100607.19;5018905;28;8083;-71
2022/01/10 06:06:20;;;;;;;;;;;;;;;4.99;60.80;100606.34;5049227;28;6811;-70
2022/01/10 06:08:45;;;;;;;;;;;;;;;4.99;61.16;100610.50;5016200;28;7110;-71
2022/01/10 06:11:11;;;;;;;;;;;;;;;4.98;61.17;100614.72;5048851;28;6959;-71
2022/01/10 06:13:37;;;;;;;;;;;;;;;4.98;61.36;100624.00;5028147;28;6945;-71
2022/01/10 06:16:04;;;;;;;;;;;;;;;4.96;60.71;100625.53;5045962;28;6811;-71
2022/01/10 06:18:30;;;;;;;;;;;;;;;4.95;60.34;100628.84;5021462;28;6800;-71
2022/01/10 06:20:56;;;;;;;;;;;;;;;4.94;61.05;100634.72;5048207;28;6912;-71
2022/01/10 06:23:22;;;;;;;;;;;;;;;4.91;60.78;100648.06;5029962;28;7233;-71
2022/01/10 06:25:48;;;;;;;;;;;;;;;4.89;59.90;100651.25;5040668;28;7144;-71
2022/01/10 06:28:15;;;;;;;;;;;;;;;4.82;60.03;100658.41;5029912;28;6788;-71
2022/01/10 06:30:41;;;;;;;;;;;;;;;4.76;59.34;100655.41;5029102;28;6799;-71
2022/01/10 06:33:06;;;;;;;;;;;;;;;4.68;59.44;100653.94;5047470;28;6823;-70
2022/01/10 06:35:33;;;;;;;;;;;;;;;4.59;59.35;100664.31;5043917;28;7911;-70
2022/01/10 06:37:59;;;;;;;;;;;;;;;4.52;59.10;100670.53;5027895;28;7311;-71
2022/01/10 06:40:24;;;;;;;;;;;;;;;4.45;58.77;100668.31;5032199;28;6799;-71
2022/01/10 06:42:50;;;;;;;;;;;;;;;4.37;59.10;100679.53;5032921;28;7281;-70
2022/01/10 06:45:17;;;;;;;;;;;;;;;4.31;59.58;100682.47;5048968;28;7121;-71
2022/01/10 06:47:42;;;;;;;;;;;;;;;4.25;58.91;100690.50;5049337;28;7031;-71
2022/01/10 06:50:09;;;;;;;;;;;;;;;4.17;58.79;100689.88;5031025;28;6819;-71
2022/01/10 06:52:34;;;;;;;;;;;;;;;4.11;58.83;100698.66;5051529;28;7045;-71
2022/01/10 06:55:00;;;;;;;;;;;;;;;4.06;59.32;100705.91;5016185;28;6930;-71
2022/01/10 06:57:26;;;;;;;;;;;;;;;4.01;59.42;100713.16;5063421;28;7000;-71
2022/01/10 06:59:52;;;;;;;;;;;;;;;3.99;59.21;100721.41;5030176;28;6972;-71
2022/01/10 07:02:19;;;;;;;;;;;;;;;3.95;59.18;100725.34;5030874;28;7688;-71
2022/01/10 07:04:45;;;;;;;;;;;;;;;3.91;58.88;100725.88;5014731;28;6803;-70
2022/01/10 07:07:10;;;;;;;;;;;;;;;3.86;59.60;100727.16;5032380;28;7062;-70
2022/01/10 07:09:36;;;;;;;;;;;;;;;3.82;59.09;100743.78;5017046;28;6879;-70
2022/01/10 07:12:03;;;;;;;;;;;;;;;3.78;59.11;100756.09;5031727;28;6872;-70
2022/01/10 07:14:31;;;;;;;;;;;;;;;3.74;60.32;100765.09;5051392;28;6811;-70
2022/01/10 07:16:57;;;;;;;;;;;;;;;3.71;60.10;100774.97;5031281;28;6894;-71
2022/01/10 07:19:24;;;;;;;;;;;;;;;3.70;60.85;100775.75;5051438;28;6815;-71
2022/01/10 07:21:50;;;;;;;;;;;;;;;3.69;59.98;100779.94;5033175;28;6918;-71
2022/01/10 07:24:16;;;;;;;;;;;;;;;3.66;60.85;100784.72;5051828;28;6803;-71
2022/01/10 07:26:42;;;;;;;;;;;;;;;3.65;60.58;100792.25;5034270;28;7935;-71
2022/01/10 07:29:08;;;;;;;;;;;;;;;3.62;60.09;100797.94;5030277;28;7018;-71
2022/01/10 07:31:35;;;;;;;;;;;;;;;3.61;60.60;100803.78;5034633;28;6787;-71
2022/01/10 07:34:03;;;;;;;;;;;;;;;3.63;60.80;100812.38;5067815;28;6883;-71
2022/01/10 07:36:29;;;;;;;;;;;;;;;3.65;60.64;100815.91;5051397;28;7636;-71
2022/01/10 07:38:54;;;;;;;;;;;;;;;3.70;61.16;100816.31;5030088;28;7498;-71
2022/01/10 07:41:20;;;;;;;;;;;;;;;3.75;61.18;100821.00;5016094;28;7257;-71
2022/01/10 07:43:46;;;;;;;;;;;;;;;3.82;61.30;100827.47;5051959;28;7055;-71
2022/01/10 07:46:12;;;;;;;;;;;;;;;3.92;61.06;100833.31;5023821;28;7030;-71
2022/01/10 07:48:41;;;;;;;;;;;;;;;4.01;61.95;100839.13;5038795;28;6868;-71
2022/01/10 07:51:09;;;;;;;;;;;;;;;4.08;61.16;100850.66;5033534;28;6819;-71
2022/01/10 07:53:36;;;;;;;;;;;;;;;4.18;61.73;100853.16;5049669;28;6811;-71
2022/01/10 07:56:04;;;;;;;;;;;;;;;4.27;61.27;100858.09;5049241;28;7014;-71
2022/01/10 07:58:30;;;;;;;;;;;;;;;4.35;62.19;100854.53;5032034;28;6811;-71
2022/01/10 08:00:57;;;;;;;;;;;;;;;4.44;61.83;100861.97;5050129;28;6880;-71
2022/01/10 08:03:23;;;;;;;;;;;;;;;4.52;62.18;100865.16;5032067;28;6815;-71
2022/01/10 08:05:48;;;;;;;;;;;;;;;4.59;62.01;100873.38;5032851;28;6787;-71
2022/01/10 08:08:14;;;;;;;;;;;;;;;4.66;62.18;100874.72;5031687;28;6803;-71
2022/01/10 08:10:40;;;;;;;;;;;;;;;4.75;61.59;100872.06;5030466;28;7224;-71
2022/01/10 08:13:05;;;;;;;;;;;;;;;4.84;62.30;100874.41;5029131;28;6788;-71
2022/01/10 08:15:31;;;;;;;;;;;;;;;4.93;62.14;100874.28;5022920;28;6828;-71
2022/01/10 08:17:57;;;;;;;;;;;;;;;4.99;62.19;100875.63;5048597;28;6795;-71
2022/01/10 08:20:23;;;;;;;;;;;;;;;5.06;62.13;100883.72;5026452;28;6874;-71
2022/01/10 08:22:49;;;;;;;;;;;;;;;5.07;61.96;100883.84;5047362;28;7190;-71
2022/01/10 08:25:16;;;;;;;;;;;;;;;5.09;61.35;100894.13;5043985;28;7023;-71
2022/01/10 08:27:41;;;;;;;;;;;;;;;5.09;61.45;100896.69;5050589;28;7564;-71
2022/01/10 08:30:08;;;;;;;;;;;;;;;5.08;61.20;100895.78;5047555;28;7820;-71
2022/01/10 08:32:34;;;;;;;;;;;;;;;5.06;61.37;100907.47;5045076;28;7086;-71
2022/01/10 08:35:00;;;;;;;;;;;;;;;5.04;61.04;100906.47;5012084;28;7693;-70
2022/01/10 08:37:26;;;;;;;;;;;;;;;5.03;60.90;100911.44;5026275;28;7287;-71
2022/01/10 08:39:52;;;;;;;;;;;;;;;5.03;61.06;100921.59;5039831;28;7383;-71
2022/01/10 08:42:19;;;;;;;;;;;;;;;5.01;60.58;100913.84;5026505;28;6780;-71
2022/01/10 08:44:46;;;;;;;;;;;;;;;5.02;61.54;100917.28;5044657;28;6799;-71
2022/01/10 08:47:12;;;;;;;;;;;;;;;5.02;60.81;100919.81;5046612;28;7231;-71
2022/01/10 08:49:37;;;;;;;;;;;;;;;5.03;61.12;100927.56;5043461;28;7248;-71
2022/01/10 08:52:04;;;;;;;;;;;;;;;5.06;61.37;100920.19;5026083;28;7860;-71
2022/01/10 08:54:30;;;;;;;;;;;;;;;5.08;61.37;100931.34;5028502;28;7200;-71
2022/01/10 08:56:56;;;;;;;;;;;;;;;5.10;61.10;100934.88;5028815;28;7851;-71
2022/01/10 08:59:22;;;;;;;;;;;;;;;5.11;61.20;100941.75;5044316;28;7086;-71
2022/01/10 09:01:48;;;;;;;;;;;;;;;5.14;61.18;100949.63;5043353;28;6887;-71
2022/01/10 09:04:18;;;;;;;;;;;;;;;5.19;61.54;100960.16;5030097;28;7888;-71
2022/01/10 09:06:46;;;;;;;;;;;;;;;5.24;61.06;100956.31;5030224;28;6815;-71
2022/01/10 09:09:13;;;;;;;;;;;;;;;5.29;61.57;100974.47;5044496;28;7019;-71
2022/01/10 09:11:40;;;;;;;;;;;;;;;5.35;61.31;100967.31;5051354;28;6827;-71
2022/01/10 09:14:06;;;;;;;;;;;;;;;5.41;61.19;100966.91;5044632;28;6884;-71
2022/01/10 09:16:32;;;;;;;;;;;;;;;5.47;61.67;100975.03;5015668;28;7157;-71
2022/01/10 09:18:58;;;;;;;;;;;;;;;5.54;61.30;100976.38;5049297;28;6996;-71
2022/01/10 09:21:24;;;;;;;;;;;;;;;5.63;61.17;100989.81;5048271;28;6889;-71
2022/01/10 09:23:50;;;;;;;;;;;;;;;5.68;61.43;100991.03;5034749;28;6968;-71
2022/01/10 09:26:16;;;;;;;;;;;;;;;5.77;60.95;100987.44;5034522;28;6965;-71
2022/01/10 09:28:43;;;;;;;;;;;;;;;5.84;60.93;100994.78;5015766;28;6910;-71
2022/01/10 09:31:10;;;;;;;;;;;;;;;5.90;60.72;100994.34;5030316;28;6839;-71
2022/01/10 09:33:36;;;;;;;;;;;;;;;5.97;61.11;101006.78;5018674;28;6911;-71
2022/01/10 09:36:02;;;;;;;;;;;;;;;6.02;61.00;101008.03;5033791;28;7864;-71
2022/01/10 09:38:28;;;;;;;;;;;;;;;6.08;61.45;101003.41;5051400;28;7114;-71
2022/01/10 09:40:55;;;;;;;;;;;;;;;6.14;60.92;101003.00;5050669;28;7156;-71
2022/01/10 09:43:21;;;;;;;;;;;;;;;6.19;60.73;101009.34;5029110;28;7860;-71
2022/01/10 09:45:50;;;;;;;;;;;;;;;6.26;60.77;101010.69;5068356;28;7165;-71
2022/01/10 09:48:16;;;;;;;;;;;;;;;6.34;61.13;101026.53;5036756;28;7353;-70
2022/01/10 09:50:43;;;;;;;;;;;;;;;6.41;61.09;101016.03;5026304;28;6980;-71
2022/01/10 09:53:11;;;;;;;;;;;;;;;6.48;60.79;101027.56;5036156;28;6985;-71
2022/01/10 09:55:37;;;;;;;;;;;;;;;6.57;60.75;101023.16;5034342;28;6815;-71
2022/01/10 09:58:03;;;;;;;;;;;;;;;6.63;60.33;101027.81;5034726;28;7290;-71
2022/01/10 10:00:30;;;;;;;;;;;;;;;6.71;60.69;101036.00;5035188;28;6886;-71
2022/01/10 10:02:56;;;;;;;;;;;;;;;6.78;60.20;101033.13;5054629;28;6804;-71
2022/01/10 10:05:22;;;;;;;;;;;;;;;6.85;60.98;101037.91;5035312;28;6803;-71
2022/01/10 10:07:48;;;;;;;;;;;;;;;6.93;60.51;101041.03;5035765;28;6875;-71
2022/01/10 10:10:15;;;;;;;;;;;;;;;7.03;60.28;101047.69;5035375;28;6816;-71
2022/01/10 10:12:51;;;;;;;;;;;;;;;7.12;60.29;101062.75;5054029;28;6895;-71
2022/01/10 10:15:22;;;;;;;;;;;;;;;7.26;61.08;101069.75;5054583;28;6819;-71
2022/01/10 10:17:48;;;;;;;;;;;;;;;7.48;61.88;101061.97;5050203;28;6989;-71
2022/01/10 10:20:21;;;;;;;;;;;;;;;7.79;61.99;101063.22;5022430;28;6796;-71
2022/01/10 10:22:51;;;;;;;;;;;;;;;8.18;61.62;101064.22;5050211;28;7342;-71
2022/01/10 10:25:18;;;;;;;;;;;;;;;8.62;60.52;101059.50;5033371;28;6972;-71
2022/01/10 10:27:47;;;;;;;;;;;;;;;9.08;60.27;101053.03;5032602;28;6971;-71
2022/01/10 10:30:27;;;;;;;;;;;;;;;9.52;59.96;101062.66;5034116;28;6825;-71
2022/01/10 10:33:23;;;;;;;;;;;;;;;9.95;58.99;101067.00;5050154;28;6815;-71
2022/01/10 10:36:04;;;;;;;;;;;;;;;10.32;58.69;101064.91;5034437;28;7884;-71
2022/01/10 10:38:30;;;;;;;;;;;;;;;10.58;57.97;101060.47;5028465;28;6901;-71
2022/01/10 10:41:01;;;;;;;;;;;;;;;10.80;57.40;101070.28;5046382;28;8507;-71
2022/01/10 10:43:33;;;;;;;;;;;;;;;11.09;56.59;101068.50;5031315;28;7237;-71
2022/01/10 10:46:14;;;;;;;;;;;;;;;11.45;55.59;101073.06;5045103;28;7642;-71
2022/01/10 10:48:45;;;;;;;;;;;;;;;11.82;55.03;101064.75;5031143;28;7920;-71
2022/01/10 10:51:11;;;;;;;;;;;;;;;12.21;54.56;101053.97;5036160;28;7783;-71
2022/01/10 10:53:39;;;;;;;;;;;;;;;12.58;53.05;101065.25;5012865;28;7042;-71
2022/01/10 10:56:07;;;;;;;;;;;;;;;12.89;52.37;101067.66;5037008;28;6803;-71
2022/01/10 10:58:33;;;;;;;;;;;;;;;13.13;52.69;101077.38;5058472;28;7341;-71
2022/01/10 11:01:03;;;;;;;;;;;;;;;13.40;52.78;101076.94;5061710;28;6973;-71
2022/01/10 11:03:29;;;;;;;;;;;;;;;13.79;51.64;101078.75;5036215;28;6803;-71
2022/01/10 11:06:02;;;;;;;;;;;;;;;14.30;50.59;101081.03;5028119;28;7218;-71
2022/01/10 11:08:36;;;;;;;;;;;;;;;14.94;49.36;101086.28;5027362;28;7038;-71
2022/01/10 11:11:02;;;;;;;;;;;;;;;15.54;47.74;101092.06;5049948;28;6819;-71
2022/01/10 11:13:31;;;;;;;;;;;;;;;15.97;46.60;101087.66;5014141;28;7036;-71
2022/01/10 11:15:58;;;;;;;;;;;;;;;16.28;45.83;101090.47;5029759;28;6804;-71
2022/01/10 11:18:24;;;;;;;;;;;;;;;16.47;45.45;101089.44;5023259;28;7391;-71
2022/01/10 11:20:55;;;;;;;;;;;;;;;16.61;45.13;101100.25;5044434;28;7110;-71
2022/01/10 11:23:23;;;;;;;;;;;;;;;16.72;44.52;101101.50;5042816;28;7972;-71
2022/01/10 11:25:49;;;;;;;;;;;;;;;16.92;44.30;101101.28;5029596;28;7154;-71
2022/01/10 11:28:24;;;;;;;;;;;;;;;17.15;44.32;101102.09;5027477;28;6880;-71
2022/01/10 11:31:03;;;;;;;;;;;;;;;17.44;43.80;101103.81;5045256;28;7064;-71
2022/01/10 11:33:36;;;;;;;;;;;;;;;17.69;43.46;101108.03;5025642;28;6796;-71
2022/01/10 11:36:09;;;;;;;;;;;;;;;17.90;42.61;101107.81;5028443;28;6882;-71
2022/01/10 11:38:52;;;;;;;;;;;;;;;18.17;42.09;101105.97;5028069;28;8076;-71
2022/01/10 11:41:24;;;;;;;;;;;;;;;18.40;41.84;101108.34;5049501;28;7116;-71
2022/01/10 11:44:04;;;;;;;;;;;;;;;18.57;41.54;101106.19;5041415;28;6804;-71
2022/01/10 11:46:38;;;;;;;;;;;;;;;18.64;40.60;101110.72;5046854;28;8511;-71
2022/01/10 11:49:21;;;;;;;;;;;;;;;18.64;40.60;101112.41;5028844;28;8040;-71
2022/01/10 11:51:50;;;;;;;;;;;;;;;18.62;40.82;101117.56;5049256;28;6976;-71
2022/01/10 11:54:44;;;;;;;;;;;;;;;18.67;40.10;101123.75;5033209;28;7045;-71
2022/01/10 11:57:18;;;;;;;;;;;;;;;18.78;39.87;101118.81;5046795;28;6836;-71
2022/01/10 11:59:48;;;;;;;;;;;;;;;18.92;40.09;101108.78;5048341;28;8034;-71
2022/01/10 12:02:20;;;;;;;;;;;;;;;19.13;39.64;101123.22;5063708;28;7366;-71
2022/01/10 12:04:47;;;;;;;;;;;;;;;19.37;39.93;101124.63;5039138;28;6819;-71
2022/01/10 12:07:16;;;;;;;;;;;;;;;19.56;38.83;101133.72;5048040;28;7299;-71
2022/01/10 12:09:44;;;;;;;;;;;;;;;19.63;38.68;101139.94;5031973;28;7288;-72
2022/01/10 12:12:14;;;;;;;;;;;;;;;19.60;38.41;101145.03;5016011;28;7109;-71
2022/01/10 12:14:42;;;;;;;;;;;;;;;19.55;38.62;101148.44;5036060;28;6820;-71
2022/01/10 12:17:08;;;;;;;;;;;;;;;19.16;38.60;101157.03;5033766;28;6827;-71
2022/01/10 12:19:35;;;;;;;;;;;;;;;18.29;39.52;101158.19;5032951;28;6891;-71
2022/01/10 12:22:02;;;;;;;;;;;;;;;17.22;40.30;101167.91;5032515;28;7948;-71
2022/01/10 12:24:28;;;;;;;;;;;;;;;16.16;41.56;101174.56;5032376;28;6965;-71
2022/01/10 12:26:53;;;;;;;;;;;;;;;15.18;42.50;101185.34;5015616;28;7003;-71
2022/01/10 12:29:19;;;;;;;;;;;;;;;14.32;43.06;101185.91;5049726;28;6791;-71
2022/01/10 12:31:46;;;;;;;;;;;;;;;13.59;44.23;101186.91;5049804;28;6799;-71
2022/01/10 12:34:14;;;;;;;;;;;;;;;12.99;45.19;101194.19;5033146;28;6823;-70
2022/01/10 12:36:42;;;;;;;;;;;;;;;12.47;46.37;101199.28;5016638;28;6831;-71
2022/01/10 12:39:21;;;;;;;;;;;;;;;12.03;46.89;101208.94;5030865;28;6816;-71
2022/01/10 12:41:48;;;;;;;;;;;;;;;11.66;47.43;101217.13;5032449;28;6978;-70
2022/01/10 12:44:15;;;;;;;;;;;;;;;11.35;48.02;101215.38;5053297;28;7043;-70
2022/01/10 12:46:41;;;;;;;;;;;;;;;11.08;48.36;101215.53;5031198;28;6969;-70
2022/01/10 12:49:11;;;;;;;;;;;;;;;10.89;48.83;101218.69;5036582;28;6807;-70
2022/01/10 12:51:53;;;;;;;;;;;;;;;10.70;49.50;101230.41;5054552;28;6971;-70
2022/01/10 12:54:29;;;;;;;;;;;;;;;10.56;49.95;101239.81;5040036;28;6815;-70
2022/01/10 12:56:57;;;;;;;;;;;;;;;10.44;49.63;101241.63;5020486;28;6820;-70
2022/01/10 12:59:27;;;;;;;;;;;;;;;10.33;50.06;101241.78;5035889;28;7212;-70
2022/01/10 13:01:55;;;;;;;;;;;;;;;10.24;50.57;101246.34;5020906;28;6988;-70
2022/01/10 13:04:28;;;;;;;;;;;;;;;10.17;50.93;101251.88;5030956;28;6844;-70
2022/01/10 13:06:55;;;;;;;;;;;;;;;10.12;51.31;101247.34;5029020;28;7000;-70
2022/01/10 13:09:22;;;;;;;;;;;;;;;10.09;50.92;101261.63;5047967;28;7937;-70